Time;durP1;ratioP1;P1;durP2;ratioP2;P2;SDS_P1;SDS_P2;PMS_P1;PMS_P2;Temp;Humidity;BMP_temperature;BMP_pressure;BME280_temperature;BME280_humidity;BME280_pressure;Samples;Min_cycle;Max_cycle;Signal;HPM_P1;HPM_P2
2023/05/31 00:02:20;;;;;;;;;;;;;;;18.23;44.52;100309.09;5065824;28;19923;-59
2023/05/31 00:04:45;;;;;;;;;;;;;;;18.15;44.83;100308.69;5070134;28;19920;-59
2023/05/31 00:07:11;;;;;;;;;;;;;;;18.13;44.24;100314.16;5065023;28;20261;-59
2023/05/31 00:09:36;;;;;;;;;;;;;;;18.13;44.97;100311.47;5071186;28;20023;-59
2023/05/31 00:12:01;;;;;;;;;;;;;;;18.07;44.51;100310.97;5070282;28;19912;-58
2023/05/31 00:14:27;;;;;;;;;;;;;;;18.06;44.37;100302.00;5070676;28;20014;-58
2023/05/31 00:16:52;;;;;;;;;;;;;;;18.02;44.84;100303.13;5070958;28;19919;-58
2023/05/31 00:19:17;;;;;;;;;;;;;;;18.07;45.02;100305.56;5064463;28;19917;-58
2023/05/31 00:21:44;;;;;;;;;;;;;;;18.03;44.74;100306.69;5051466;28;20127;-58
2023/05/31 00:24:09;;;;;;;;;;;;;;;18.05;44.58;100307.47;5059286;28;20387;-58
2023/05/31 00:26:35;;;;;;;;;;;;;;;18.05;44.82;100302.97;5060502;28;19915;-58
2023/05/31 00:29:00;;;;;;;;;;;;;;;18.04;45.33;100301.22;5051226;28;20367;-58
2023/05/31 00:31:25;;;;;;;;;;;;;;;18.00;44.26;100309.56;5062441;28;19913;-58
2023/05/31 00:33:51;;;;;;;;;;;;;;;18.01;44.56;100309.47;5051490;28;19913;-59
2023/05/31 00:36:16;;;;;;;;;;;;;;;17.99;44.82;100307.84;5060294;28;19920;-57
2023/05/31 00:38:41;;;;;;;;;;;;;;;18.03;44.63;100315.66;5071179;28;19908;-57
2023/05/31 00:41:08;;;;;;;;;;;;;;;18.04;45.62;100312.00;5070203;28;19912;-57
2023/05/31 00:43:33;;;;;;;;;;;;;;;18.03;45.33;100320.16;5070624;28;19913;-58
2023/05/31 00:45:59;;;;;;;;;;;;;;;17.98;45.24;100317.75;5053557;28;20359;-58
2023/05/31 00:48:24;;;;;;;;;;;;;;;17.92;44.79;100323.47;5050415;28;20275;-58
2023/05/31 00:50:49;;;;;;;;;;;;;;;17.91;45.43;100323.56;5065379;28;19920;-58
2023/05/31 00:53:15;;;;;;;;;;;;;;;17.90;45.40;100319.13;5051012;28;19904;-58
2023/05/31 00:55:40;;;;;;;;;;;;;;;17.88;45.48;100321.91;5063291;28;19917;-58
2023/05/31 00:58:06;;;;;;;;;;;;;;;17.86;45.67;100317.56;5071214;28;19923;-58
2023/05/31 01:00:37;;;;;;;;;;;;;;;17.88;45.69;100321.91;5069471;28;19973;-57
2023/05/31 01:03:03;;;;;;;;;;;;;;;17.87;45.99;100320.19;5062030;28;20299;-58
2023/05/31 01:05:28;;;;;;;;;;;;;;;17.87;45.60;100314.81;5050300;28;19921;-58
2023/05/31 01:07:53;;;;;;;;;;;;;;;17.84;45.96;100314.97;5064062;28;19916;-57
2023/05/31 01:10:19;;;;;;;;;;;;;;;17.83;45.71;100315.94;5069506;28;19936;-57
2023/05/31 01:12:53;;;;;;;;;;;;;;;17.80;46.09;100308.03;5069144;28;20456;-58
2023/05/31 01:15:26;;;;;;;;;;;;;;;17.80;47.13;100318.81;5050681;28;19912;-58
2023/05/31 01:18:10;;;;;;;;;;;;;;;17.75;46.10;100320.00;5049549;28;20426;-58
2023/05/31 01:20:38;;;;;;;;;;;;;;;17.75;47.16;100314.63;5049997;28;20392;-57
2023/05/31 01:23:16;;;;;;;;;;;;;;;17.66;46.21;100318.69;5063468;28;19943;-58
2023/05/31 01:26:05;;;;;;;;;;;;;;;17.68;45.97;100318.63;5053355;28;19919;-58
2023/05/31 01:28:32;;;;;;;;;;;;;;;17.69;46.05;100315.84;5069608;28;20009;-57
2023/05/31 01:31:00;;;;;;;;;;;;;;;17.70;46.57;100314.91;5070303;28;19912;-58
2023/05/31 01:33:25;;;;;;;;;;;;;;;17.63;46.78;100310.81;5070399;28;19920;-57
2023/05/31 01:35:50;;;;;;;;;;;;;;;17.58;46.80;100320.97;5069777;28;20005;-57
2023/05/31 01:38:16;;;;;;;;;;;;;;;17.58;47.46;100317.41;5069296;28;19920;-57
2023/05/31 01:40:41;;;;;;;;;;;;;;;17.54;47.03;100321.22;5069565;28;19912;-58
2023/05/31 01:43:06;;;;;;;;;;;;;;;17.58;47.60;100331.72;5069174;28;20365;-58
2023/05/31 01:45:33;;;;;;;;;;;;;;;17.54;47.49;100327.47;5052255;28;19917;-58
2023/05/31 01:48:01;;;;;;;;;;;;;;;17.51;47.25;100326.78;5056037;28;20364;-58
2023/05/31 01:50:26;;;;;;;;;;;;;;;17.52;46.92;100329.38;5069093;28;19912;-58
2023/05/31 01:52:51;;;;;;;;;;;;;;;17.50;48.09;100325.91;5069448;28;19935;-58
2023/05/31 01:55:17;;;;;;;;;;;;;;;17.49;47.41;100328.69;5068409;28;19916;-58
2023/05/31 01:57:43;;;;;;;;;;;;;;;17.51;47.53;100333.00;5069132;28;19951;-58
2023/05/31 02:00:11;;;;;;;;;;;;;;;17.53;47.57;100325.72;5068216;28;19999;-58
2023/05/31 02:02:37;;;;;;;;;;;;;;;17.53;47.04;100325.72;5069450;28;19913;-58
2023/05/31 02:05:04;;;;;;;;;;;;;;;17.56;47.74;100330.09;5069338;28;19916;-57
2023/05/31 02:07:29;;;;;;;;;;;;;;;17.54;47.47;100323.91;5068822;28;20039;-57
2023/05/31 02:09:54;;;;;;;;;;;;;;;17.53;47.78;100317.66;5066401;28;20011;-57
2023/05/31 02:12:19;;;;;;;;;;;;;;;17.53;47.88;100317.66;5069737;28;19908;-57
2023/05/31 02:14:45;;;;;;;;;;;;;;;17.53;48.39;100320.34;5068994;28;19916;-57
2023/05/31 02:17:13;;;;;;;;;;;;;;;17.52;48.51;100321.31;5069067;28;19917;-57
2023/05/31 02:19:40;;;;;;;;;;;;;;;17.47;48.80;100323.41;5068712;28;19995;-58
2023/05/31 02:22:06;;;;;;;;;;;;;;;17.35;48.76;100305.22;5068963;28;20452;-58
2023/05/31 02:24:31;;;;;;;;;;;;;;;17.36;48.63;100314.16;5068093;28;19916;-57
2023/05/31 02:26:56;;;;;;;;;;;;;;;17.33;49.09;100312.47;5068902;28;19950;-58
2023/05/31 02:29:21;;;;;;;;;;;;;;;17.33;48.57;100309.78;5067843;28;19924;-58
2023/05/31 02:31:47;;;;;;;;;;;;;;;17.35;49.05;100315.97;5067256;28;20015;-58
2023/05/31 02:34:12;;;;;;;;;;;;;;;17.29;49.25;100310.06;5069587;28;19912;-58
2023/05/31 02:36:37;;;;;;;;;;;;;;;17.23;49.23;100311.28;5069795;28;19912;-59
2023/05/31 02:39:03;;;;;;;;;;;;;;;17.23;49.31;100313.97;5069729;28;19935;-58
2023/05/31 02:41:28;;;;;;;;;;;;;;;17.25;48.84;100313.88;5068852;28;19916;-58
2023/05/31 02:43:53;;;;;;;;;;;;;;;17.26;49.07;100311.13;5069246;28;20442;-58
2023/05/31 02:46:18;;;;;;;;;;;;;;;17.22;48.84;100314.91;5068686;28;19919;-58
2023/05/31 02:48:44;;;;;;;;;;;;;;;17.22;48.92;100314.91;5068718;28;19969;-58
2023/05/31 02:51:09;;;;;;;;;;;;;;;17.21;49.22;100317.69;5064513;28;20280;-58
2023/05/31 02:53:34;;;;;;;;;;;;;;;17.18;49.56;100313.34;5069633;28;19958;-58
2023/05/31 02:56:00;;;;;;;;;;;;;;;17.16;49.23;100317.06;5062615;28;19921;-59
2023/05/31 02:58:25;;;;;;;;;;;;;;;17.15;50.17;100316.19;5069144;28;19912;-58
2023/05/31 03:00:50;;;;;;;;;;;;;;;17.12;50.25;100312.81;5069275;28;19912;-58
2023/05/31 03:03:18;;;;;;;;;;;;;;;17.04;50.13;100321.28;5061474;28;19912;-57
2023/05/31 03:05:43;;;;;;;;;;;;;;;17.02;50.59;100321.38;5059060;28;20292;-59
2023/05/31 03:08:09;;;;;;;;;;;;;;;16.99;50.40;100324.22;5069238;28;19913;-58
2023/05/31 03:10:34;;;;;;;;;;;;;;;16.99;50.24;100329.59;5070147;28;19912;-58
2023/05/31 03:13:00;;;;;;;;;;;;;;;17.00;50.61;100331.31;5071824;28;19926;-58
2023/05/31 03:15:25;;;;;;;;;;;;;;;16.94;51.14;100330.78;5072776;28;19908;-58
2023/05/31 03:17:51;;;;;;;;;;;;;;;16.96;50.61;100327.09;5071923;28;19923;-58
2023/05/31 03:20:16;;;;;;;;;;;;;;;16.89;51.22;100330.16;5072711;28;20279;-58
2023/05/31 03:22:41;;;;;;;;;;;;;;;16.86;51.42;100330.34;5072727;28;21555;-58
2023/05/31 03:25:07;;;;;;;;;;;;;;;16.89;51.71;100335.53;5064329;28;19920;-58
2023/05/31 03:27:32;;;;;;;;;;;;;;;16.88;51.63;100336.50;5070689;28;20257;-58
2023/05/31 03:29:57;;;;;;;;;;;;;;;16.84;51.47;100338.47;5071281;28;19958;-58
2023/05/31 03:32:23;;;;;;;;;;;;;;;16.80;51.65;100344.09;5071783;28;19908;-59
2023/05/31 03:34:48;;;;;;;;;;;;;;;16.78;51.67;100335.25;5072061;28;19920;-57
2023/05/31 03:37:13;;;;;;;;;;;;;;;16.80;51.36;100341.41;5069810;28;20299;-58
2023/05/31 03:39:38;;;;;;;;;;;;;;;16.76;51.73;100337.13;5068432;28;19920;-58
2023/05/31 03:42:05;;;;;;;;;;;;;;;16.74;51.96;100339.03;5055300;28;20407;-59
2023/05/31 03:44:30;;;;;;;;;;;;;;;16.73;51.92;100337.31;5063665;28;20434;-60
2023/05/31 03:46:56;;;;;;;;;;;;;;;16.70;51.48;100338.34;5050522;28;19909;-59
2023/05/31 03:49:21;;;;;;;;;;;;;;;16.71;52.11;100345.44;5066485;28;20292;-57
2023/05/31 03:51:46;;;;;;;;;;;;;;;16.77;51.93;100344.28;5052095;28;19935;-60
2023/05/31 03:54:12;;;;;;;;;;;;;;;16.81;52.78;100352.09;5060412;28;19922;-59
2023/05/31 03:56:37;;;;;;;;;;;;;;;16.81;51.97;100352.09;5071947;28;19908;-59
2023/05/31 03:59:03;;;;;;;;;;;;;;;16.70;53.00;100354.47;5071676;28;19964;-58
2023/05/31 04:01:28;;;;;;;;;;;;;;;16.75;52.72;100351.53;5069659;28;20379;-58
2023/05/31 04:03:54;;;;;;;;;;;;;;;16.78;52.74;100354.06;5069738;28;19920;-58
2023/05/31 04:06:20;;;;;;;;;;;;;;;16.75;52.82;100356.91;5067220;28;19912;-58
2023/05/31 04:08:45;;;;;;;;;;;;;;;16.73;53.34;100358.81;5070073;28;20530;-58
2023/05/31 04:11:10;;;;;;;;;;;;;;;16.78;53.44;100356.75;5071038;28;20447;-58
2023/05/31 04:13:35;;;;;;;;;;;;;;;16.76;53.37;100364.88;5072020;28;19919;-58
2023/05/31 04:16:01;;;;;;;;;;;;;;;16.77;53.73;100368.44;5070745;28;20015;-58
2023/05/31 04:18:26;;;;;;;;;;;;;;;16.79;53.75;100369.22;5071409;28;19920;-58
2023/05/31 04:20:51;;;;;;;;;;;;;;;16.80;53.94;100371.81;5071618;28;20337;-57
2023/05/31 04:23:16;;;;;;;;;;;;;;;16.75;53.93;100373.88;5070218;28;19920;-58
2023/05/31 04:25:44;;;;;;;;;;;;;;;16.80;53.39;100369.13;5071652;28;19912;-58
2023/05/31 04:28:09;;;;;;;;;;;;;;;16.87;53.43;100367.88;5070786;28;19943;-58
2023/05/31 04:30:34;;;;;;;;;;;;;;;16.91;54.21;100368.56;5071376;28;19916;-59
2023/05/31 04:33:00;;;;;;;;;;;;;;;16.92;54.45;100373.88;5071179;28;19919;-58
2023/05/31 04:35:28;;;;;;;;;;;;;;;16.97;54.15;100373.63;5071121;28;19978;-58
2023/05/31 04:37:58;;;;;;;;;;;;;;;16.98;52.95;100367.31;5069759;28;19916;-58
2023/05/31 04:40:24;;;;;;;;;;;;;;;17.02;52.53;100366.19;5071296;28;19915;-58
2023/05/31 04:42:49;;;;;;;;;;;;;;;17.09;53.15;100362.22;5071070;28;20398;-58
2023/05/31 04:45:15;;;;;;;;;;;;;;;17.12;52.34;100361.22;5069826;28;20656;-58
2023/05/31 04:47:41;;;;;;;;;;;;;;;17.20;51.82;100361.66;5052711;28;19919;-58
2023/05/31 04:50:06;;;;;;;;;;;;;;;17.23;51.48;100364.19;5070324;28;19917;-57
2023/05/31 04:52:32;;;;;;;;;;;;;;;17.32;51.52;100359.16;5071079;28;19919;-58
2023/05/31 04:54:58;;;;;;;;;;;;;;;17.34;51.21;100361.75;5070771;28;20002;-58
2023/05/31 04:57:24;;;;;;;;;;;;;;;17.42;50.31;100357.72;5048783;28;20361;-58
2023/05/31 04:59:50;;;;;;;;;;;;;;;17.47;50.93;100352.97;5049448;28;19923;-59
2023/05/31 05:02:16;;;;;;;;;;;;;;;17.48;51.12;100354.69;5069732;28;19916;-58
2023/05/31 05:04:42;;;;;;;;;;;;;;;17.55;50.03;100361.50;5070420;28;19923;-58
2023/05/31 05:07:07;;;;;;;;;;;;;;;17.69;50.81;100369.66;5069612;28;19994;-58
2023/05/31 05:09:33;;;;;;;;;;;;;;;17.72;51.15;100364.13;5060275;28;19934;-60
2023/05/31 05:11:58;;;;;;;;;;;;;;;17.75;50.05;100372.00;5069298;28;19916;-59
2023/05/31 05:14:23;;;;;;;;;;;;;;;17.90;49.52;100368.47;5056640;28;19916;-59
2023/05/31 05:16:49;;;;;;;;;;;;;;;18.10;49.95;100360.09;5066730;28;19923;-59
2023/05/31 05:19:14;;;;;;;;;;;;;;;18.11;49.20;100361.84;5059580;28;20493;-59
2023/05/31 05:21:40;;;;;;;;;;;;;;;18.13;49.91;100359.94;5060267;28;20023;-60
2023/05/31 05:24:05;;;;;;;;;;;;;;;18.11;50.35;100366.34;5065536;28;19916;-59
2023/05/31 05:26:30;;;;;;;;;;;;;;;18.19;50.71;100359.56;5058238;28;20026;-59
2023/05/31 05:28:56;;;;;;;;;;;;;;;18.32;50.13;100371.34;5066196;28;19923;-57
2023/05/31 05:31:21;;;;;;;;;;;;;;;18.19;49.40;100364.94;5068407;28;20381;-57
2023/05/31 05:33:46;;;;;;;;;;;;;;;18.35;48.93;100360.41;5064260;28;19928;-56
2023/05/31 05:36:12;;;;;;;;;;;;;;;18.44;49.15;100363.53;5069201;28;19916;-56
2023/05/31 05:38:37;;;;;;;;;;;;;;;18.51;49.76;100356.84;5068944;28;19919;-56
2023/05/31 05:41:02;;;;;;;;;;;;;;;18.44;48.75;100364.41;5052461;28;19945;-57
2023/05/31 05:43:30;;;;;;;;;;;;;;;18.60;49.13;100359.00;5058813;28;19920;-57
2023/05/31 05:45:55;;;;;;;;;;;;;;;18.62;48.25;100351.66;5060691;28;19917;-57
2023/05/31 05:48:20;;;;;;;;;;;;;;;18.67;48.38;100361.22;5063226;28;19927;-56
2023/05/31 05:50:46;;;;;;;;;;;;;;;18.80;49.02;100366.72;5067831;28;19916;-56
2023/05/31 05:53:11;;;;;;;;;;;;;;;18.91;48.78;100361.56;5064478;28;19939;-56
2023/05/31 05:55:36;;;;;;;;;;;;;;;19.11;49.29;100372.00;5068037;28;19951;-57
2023/05/31 05:58:02;;;;;;;;;;;;;;;19.02;47.47;100375.25;5069084;28;19919;-58
2023/05/31 06:00:28;;;;;;;;;;;;;;;19.13;48.02;100367.34;5070003;28;19912;-57
2023/05/31 06:02:53;;;;;;;;;;;;;;;19.13;47.66;100370.94;5069983;28;20360;-57
2023/05/31 06:05:25;;;;;;;;;;;;;;;19.08;47.30;100355.97;5068098;28;19920;-58
2023/05/31 06:07:50;;;;;;;;;;;;;;;19.16;47.91;100359.09;5068771;28;20368;-58
2023/05/31 06:10:15;;;;;;;;;;;;;;;19.21;47.76;100363.22;5061230;28;19927;-57
2023/05/31 06:12:40;;;;;;;;;;;;;;;19.34;47.79;100356.13;5069309;28;19927;-57
2023/05/31 06:15:06;;;;;;;;;;;;;;;19.59;48.20;100358.13;5056473;28;19963;-59
2023/05/31 06:17:31;;;;;;;;;;;;;;;19.64;47.80;100356.88;5068597;28;19916;-58
2023/05/31 06:19:57;;;;;;;;;;;;;;;19.74;45.79;100354.47;5065406;28;20011;-58
2023/05/31 06:22:22;;;;;;;;;;;;;;;19.88;46.57;100357.16;5059762;28;19912;-58
2023/05/31 06:24:47;;;;;;;;;;;;;;;19.99;46.55;100359.13;5061390;28;19912;-59
2023/05/31 06:27:14;;;;;;;;;;;;;;;20.21;46.22;100363.06;5059888;28;20315;-57
2023/05/31 06:29:39;;;;;;;;;;;;;;;20.14;45.27;100352.72;5068406;28;19917;-59
2023/05/31 06:32:05;;;;;;;;;;;;;;;20.24;44.74;100364.69;5058139;28;19924;-59
2023/05/31 06:34:30;;;;;;;;;;;;;;;20.36;46.43;100362.00;5056599;28;19952;-58
2023/05/31 06:36:56;;;;;;;;;;;;;;;20.53;45.36;100356.34;5065245;28;19916;-58
2023/05/31 06:39:21;;;;;;;;;;;;;;;20.62;45.13;100362.97;5068839;28;20291;-58
2023/05/31 06:41:46;;;;;;;;;;;;;;;20.70;44.30;100360.59;5068522;28;19935;-59
2023/05/31 06:44:11;;;;;;;;;;;;;;;20.78;45.02;100358.22;5068302;28;20310;-58
2023/05/31 06:46:37;;;;;;;;;;;;;;;20.92;43.66;100350.91;5058213;28;19916;-60
2023/05/31 06:49:02;;;;;;;;;;;;;;;20.92;44.05;100355.47;5062507;28;20343;-58
2023/05/31 06:51:27;;;;;;;;;;;;;;;21.04;44.36;100364.59;5059114;28;19995;-58
2023/05/31 06:53:52;;;;;;;;;;;;;;;21.25;44.04;100363.91;5059070;28;19912;-59
2023/05/31 06:56:18;;;;;;;;;;;;;;;21.40;43.75;100356.56;5055185;28;19912;-58
2023/05/31 06:58:43;;;;;;;;;;;;;;;21.43;42.95;100362.59;5057159;28;19928;-59
2023/05/31 07:01:09;;;;;;;;;;;;;;;21.67;43.71;100354.56;5061264;28;20098;-59
2023/05/31 07:03:34;;;;;;;;;;;;;;;21.82;42.90;100348.06;5058311;28;19917;-59
2023/05/31 07:06:00;;;;;;;;;;;;;;;22.01;42.87;100352.03;5072112;28;19950;-59
2023/05/31 07:08:25;;;;;;;;;;;;;;;22.03;42.36;100346.47;5059453;28;19919;-60
2023/05/31 07:10:51;;;;;;;;;;;;;;;22.24;42.27;100349.44;5053108;28;20542;-61
2023/05/31 07:13:16;;;;;;;;;;;;;;;22.45;41.60;100343.28;5058316;28;19916;-60
2023/05/31 07:15:41;;;;;;;;;;;;;;;22.39;42.02;100340.16;5035048;28;20062;-61
2023/05/31 07:18:07;;;;;;;;;;;;;;;22.48;40.86;100347.59;5056388;28;19931;-61
2023/05/31 07:20:32;;;;;;;;;;;;;;;22.50;41.01;100345.63;5070804;28;19909;-60
2023/05/31 07:22:57;;;;;;;;;;;;;;;22.78;41.60;100353.41;5058879;28;19919;-61
2023/05/31 07:25:23;;;;;;;;;;;;;;;23.08;42.02;100348.31;5053351;28;19909;-60
2023/05/31 07:27:48;;;;;;;;;;;;;;;23.22;41.28;100353.50;5052579;28;19959;-62
2023/05/31 07:30:14;;;;;;;;;;;;;;;23.34;39.55;100344.44;5056368;28;19926;-61
2023/05/31 07:32:39;;;;;;;;;;;;;;;23.56;39.85;100349.00;5072595;28;19912;-61
2023/05/31 07:35:06;;;;;;;;;;;;;;;23.67;40.00;100346.28;5071952;28;19920;-60
2023/05/31 07:37:31;;;;;;;;;;;;;;;23.69;40.38;100344.31;5072412;28;19924;-61
2023/05/31 07:39:56;;;;;;;;;;;;;;;23.90;38.59;100343.41;5066749;28;19982;-61
2023/05/31 07:42:22;;;;;;;;;;;;;;;24.19;39.95;100332.84;5064251;28;20343;-61
2023/05/31 07:44:48;;;;;;;;;;;;;;;24.60;38.52;100341.09;5050612;28;19919;-61
2023/05/31 07:47:14;;;;;;;;;;;;;;;25.03;37.88;100347.34;5052327;28;19908;-61
2023/05/31 07:49:39;;;;;;;;;;;;;;;25.38;37.55;100337.00;5056188;28;20575;-61
2023/05/31 07:52:05;;;;;;;;;;;;;;;25.29;36.71;100350.50;5051943;28;20011;-61
2023/05/31 07:54:30;;;;;;;;;;;;;;;25.46;36.83;100344.47;5054809;28;20351;-62
2023/05/31 07:56:55;;;;;;;;;;;;;;;25.57;37.13;100342.50;5057922;28;19955;-61
2023/05/31 07:59:21;;;;;;;;;;;;;;;25.61;37.59;100343.09;5051172;28;19916;-61
2023/05/31 08:01:46;;;;;;;;;;;;;;;25.78;37.57;100342.47;5064696;28;20002;-61
2023/05/31 08:04:11;;;;;;;;;;;;;;;25.71;37.22;100330.38;5069889;28;19921;-62
2023/05/31 08:06:37;;;;;;;;;;;;;;;26.03;36.08;100336.53;5069071;28;19916;-62
2023/05/31 08:09:05;;;;;;;;;;;;;;;25.87;36.82;100334.31;5068961;28;20015;-63
2023/05/31 08:11:30;;;;;;;;;;;;;;;26.19;36.42;100327.81;5069397;28;19908;-63
2023/05/31 08:13:55;;;;;;;;;;;;;;;26.39;36.72;100326.84;5064021;28;19919;-63
2023/05/31 08:16:20;;;;;;;;;;;;;;;26.27;35.33;100322.50;5043610;28;19927;-62
2023/05/31 08:18:46;;;;;;;;;;;;;;;26.45;35.10;100323.53;5064390;28;20338;-62
2023/05/31 08:21:11;;;;;;;;;;;;;;;26.44;36.42;100316.38;5050398;28;19916;-63
2023/05/31 08:23:36;;;;;;;;;;;;;;;26.81;36.56;100314.63;5051981;28;20403;-62
2023/05/31 08:26:02;;;;;;;;;;;;;;;26.99;36.19;100310.16;5062762;28;19912;-63
2023/05/31 08:28:27;;;;;;;;;;;;;;;27.46;35.11;100314.66;5070225;28;19992;-62
2023/05/31 08:30:52;;;;;;;;;;;;;;;27.79;36.25;100314.06;5053148;28;19912;-62
2023/05/31 08:33:18;;;;;;;;;;;;;;;27.73;34.32;100309.22;5067889;28;20010;-63
2023/05/31 08:35:43;;;;;;;;;;;;;;;27.96;34.92;100316.03;5070246;28;19916;-62
2023/05/31 08:38:08;;;;;;;;;;;;;;;28.11;34.52;100305.41;5052632;28;19913;-62
2023/05/31 08:40:34;;;;;;;;;;;;;;;28.03;33.86;100300.72;5050764;28;19912;-63
2023/05/31 08:43:07;;;;;;;;;;;;;;;28.05;34.22;100304.19;5066661;28;19920;-63
2023/05/31 08:45:34;;;;;;;;;;;;;;;28.31;34.03;100299.66;5064527;28;20003;-61
2023/05/31 08:47:59;;;;;;;;;;;;;;;28.36;33.25;100302.78;5060062;28;19928;-61
2023/05/31 08:50:26;;;;;;;;;;;;;;;28.26;34.36;100296.53;5050342;28;19912;-60
2023/05/31 08:52:51;;;;;;;;;;;;;;;28.38;34.01;100305.38;5054671;28;19920;-61
2023/05/31 08:55:18;;;;;;;;;;;;;;;28.52;33.19;100299.38;5057847;28;20380;-62
2023/05/31 08:57:43;;;;;;;;;;;;;;;28.56;33.58;100299.91;5052008;28;20006;-62
2023/05/31 09:00:10;;;;;;;;;;;;;;;28.57;32.99;100291.53;5050361;28;20023;-60
2023/05/31 09:02:36;;;;;;;;;;;;;;;28.52;33.29;100284.84;5053886;28;19912;-62
2023/05/31 09:05:03;;;;;;;;;;;;;;;28.43;33.62;100292.09;5058894;28;19961;-63
2023/05/31 09:07:29;;;;;;;;;;;;;;;28.43;34.22;100287.44;5067486;28;19959;-63
2023/05/31 09:09:54;;;;;;;;;;;;;;;28.20;33.71;100286.19;5052640;28;20009;-62
2023/05/31 09:12:19;;;;;;;;;;;;;;;28.24;33.42;100287.59;5050443;28;19962;-61
2023/05/31 09:14:45;;;;;;;;;;;;;;;28.50;33.02;100297.81;5052266;28;19919;-62
2023/05/31 09:17:10;;;;;;;;;;;;;;;28.56;33.00;100281.63;5056714;28;19919;-62
2023/05/31 09:19:39;;;;;;;;;;;;;;;28.04;32.80;100286.03;5061459;28;20181;-63
2023/05/31 09:22:05;;;;;;;;;;;;;;;28.12;33.74;100288.00;5057385;28;19909;-61
2023/05/31 09:24:31;;;;;;;;;;;;;;;28.14;34.12;100281.34;5050554;28;19917;-62
2023/05/31 09:26:56;;;;;;;;;;;;;;;28.61;33.21;100282.00;5064441;28;19919;-63
2023/05/31 09:29:22;;;;;;;;;;;;;;;28.58;32.56;100282.34;5053104;28;19920;-61
2023/05/31 09:31:47;;;;;;;;;;;;;;;28.77;33.21;100284.00;5050074;28;19988;-62
2023/05/31 09:34:26;;;;;;;;;;;;;;;29.22;34.73;100284.72;5051867;28;20654;-62
2023/05/31 09:36:52;;;;;;;;;;;;;;;29.59;32.46;100277.03;5066371;28;19993;-63
2023/05/31 09:39:17;;;;;;;;;;;;;;;29.79;33.68;100273.03;5060249;28;20007;-63
2023/05/31 09:41:42;;;;;;;;;;;;;;;29.83;32.66;100266.19;5069142;28;19913;-62
2023/05/31 09:44:08;;;;;;;;;;;;;;;29.88;34.01;100271.19;5054571;28;19919;-61
2023/05/31 09:46:34;;;;;;;;;;;;;;;29.70;32.45;100274.03;5061977;28;19924;-62
2023/05/31 09:49:03;;;;;;;;;;;;;;;29.97;32.09;100264.72;5058065;28;20086;-63
2023/05/31 09:51:30;;;;;;;;;;;;;;;29.97;33.40;100267.44;5055412;28;20268;-63
2023/05/31 09:53:55;;;;;;;;;;;;;;;30.37;33.29;100259.31;5060369;28;20006;-63
2023/05/31 09:56:21;;;;;;;;;;;;;;;30.86;32.34;100263.78;5061214;28;20038;-63
2023/05/31 09:58:50;;;;;;;;;;;;;;;31.11;33.39;100257.25;5067792;28;19920;-62
2023/05/31 10:01:16;;;;;;;;;;;;;;;30.63;31.22;100260.88;5057613;28;19923;-63
2023/05/31 10:03:42;;;;;;;;;;;;;;;30.82;32.19;100254.19;5050807;28;19912;-63
2023/05/31 10:06:08;;;;;;;;;;;;;;;30.81;30.66;100252.47;5063458;28;19916;-63
2023/05/31 10:08:34;;;;;;;;;;;;;;;30.82;30.42;100252.28;5061065;28;19912;-63
2023/05/31 10:11:00;;;;;;;;;;;;;;;31.22;31.50;100242.28;5054282;28;19960;-63
2023/05/31 10:13:28;;;;;;;;;;;;;;;31.45;31.26;100249.59;5060302;28;19913;-64
2023/05/31 10:15:56;;;;;;;;;;;;;;;31.35;30.10;100243.44;5062959;28;19916;-63
2023/05/31 10:18:23;;;;;;;;;;;;;;;31.22;29.26;100251.38;5057233;28;20368;-63
2023/05/31 10:20:54;;;;;;;;;;;;;;;31.44;30.35;100250.66;5060612;28;19916;-64
2023/05/31 10:23:21;;;;;;;;;;;;;;;31.49;29.14;100233.59;5068216;28;20896;-65
2023/05/31 10:25:51;;;;;;;;;;;;;;;31.66;29.43;100240.75;5067034;28;19970;-63
2023/05/31 10:28:20;;;;;;;;;;;;;;;31.86;29.23;100242.06;5068703;28;19919;-64
2023/05/31 10:30:48;;;;;;;;;;;;;;;31.76;29.08;100252.41;5063886;28;19916;-63
2023/05/31 10:33:14;;;;;;;;;;;;;;;31.53;28.03;100244.06;5057932;28;19917;-63
2023/05/31 10:35:39;;;;;;;;;;;;;;;31.81;29.19;100244.47;5071654;28;19934;-63
2023/05/31 10:38:05;;;;;;;;;;;;;;;31.84;29.46;100244.13;5067351;28;19916;-64
2023/05/31 10:40:37;;;;;;;;;;;;;;;31.96;28.34;100229.78;5061111;28;19917;-63
2023/05/31 10:43:08;;;;;;;;;;;;;;;32.08;28.52;100235.72;5078029;28;19977;-64
2023/05/31 10:46:09;;;;;;;;;;;;;;;32.27;29.20;100227.00;5065760;28;19954;-63
2023/05/31 10:48:53;;;;;;;;;;;;;;;31.88;27.57;100235.34;4992763;28;19917;-65
2023/05/31 10:51:19;;;;;;;;;;;;;;;32.16;28.36;100232.91;5046758;28;19916;-63
2023/05/31 10:53:48;;;;;;;;;;;;;;;32.48;27.88;100238.22;5075250;28;19916;-65
2023/05/31 10:56:14;;;;;;;;;;;;;;;32.61;27.12;100230.19;5072025;28;19912;-64
2023/05/31 10:58:41;;;;;;;;;;;;;;;32.77;28.17;100227.28;5063180;28;19924;-63
2023/05/31 11:01:10;;;;;;;;;;;;;;;32.41;26.51;100214.34;5064075;28;19977;-63
2023/05/31 11:03:42;;;;;;;;;;;;;;;32.60;27.56;100220.22;5058343;28;20273;-64
2023/05/31 11:06:11;;;;;;;;;;;;;;;32.37;28.07;100224.88;5056848;28;19916;-63
2023/05/31 11:08:37;;;;;;;;;;;;;;;32.53;26.65;100224.75;5066379;28;19916;-64
2023/05/31 11:11:21;;;;;;;;;;;;;;;32.48;26.54;100227.22;5067847;28;20002;-63
2023/05/31 11:14:03;;;;;;;;;;;;;;;32.54;27.68;100228.38;5068042;28;19923;-65
2023/05/31 11:16:32;;;;;;;;;;;;;;;32.73;26.33;100220.47;5068404;28;19920;-64
2023/05/31 11:19:21;;;;;;;;;;;;;;;32.52;25.87;100227.72;5060988;28;19919;-64
2023/05/31 11:21:50;;;;;;;;;;;;;;;32.57;26.71;100209.56;5060524;28;19924;-64
2023/05/31 11:24:25;;;;;;;;;;;;;;;32.72;27.58;100209.63;5070514;28;20045;-63
2023/05/31 11:26:54;;;;;;;;;;;;;;;32.87;26.19;100224.25;5065262;28;19958;-64
2023/05/31 11:29:19;;;;;;;;;;;;;;;32.85;27.33;100218.94;5047057;28;19971;-64
2023/05/31 11:31:48;;;;;;;;;;;;;;;32.65;26.04;100220.53;5058502;28;19951;-65
2023/05/31 11:34:24;;;;;;;;;;;;;;;32.94;26.41;100209.59;5056411;28;19967;-64
2023/05/31 11:36:49;;;;;;;;;;;;;;;33.20;25.77;100212.75;5059668;28;19920;-64
2023/05/31 11:39:16;;;;;;;;;;;;;;;32.96;26.26;100209.41;5061198;28;19917;-64
2023/05/31 11:41:43;;;;;;;;;;;;;;;33.21;25.93;100208.09;5058114;28;19916;-63
2023/05/31 11:44:10;;;;;;;;;;;;;;;33.22;24.88;100210.66;5061700;28;19962;-65
2023/05/31 11:46:39;;;;;;;;;;;;;;;33.63;25.73;100196.38;5056842;28;20459;-65
2023/05/31 11:49:04;;;;;;;;;;;;;;;33.43;25.29;100195.28;5059168;28;19924;-64
2023/05/31 11:51:30;;;;;;;;;;;;;;;33.19;25.19;100188.13;5066249;28;19916;-65
2023/05/31 11:53:56;;;;;;;;;;;;;;;33.56;25.58;100200.97;5060993;28;19912;-64
2023/05/31 11:56:32;;;;;;;;;;;;;;;33.68;26.14;100199.41;5058471;28;19917;-63
2023/05/31 11:58:58;;;;;;;;;;;;;;;33.45;25.10;100191.25;5064143;28;20386;-64
2023/05/31 12:01:23;;;;;;;;;;;;;;;33.00;25.37;100208.81;5059783;28;19912;-64
2023/05/31 12:03:48;;;;;;;;;;;;;;;33.25;25.65;100190.09;5063929;28;19938;-64
2023/05/31 12:06:13;;;;;;;;;;;;;;;33.43;25.71;100185.06;5064164;28;19953;-63
2023/05/31 12:08:39;;;;;;;;;;;;;;;33.51;26.19;100197.94;5064528;28;19913;-65
2023/05/31 12:11:05;;;;;;;;;;;;;;;33.65;25.59;100188.75;5064105;28;20182;-62
2023/05/31 12:13:30;;;;;;;;;;;;;;;33.57;24.75;100188.88;5071285;28;19912;-64
2023/05/31 12:15:56;;;;;;;;;;;;;;;33.53;24.66;100195.81;5064907;28;19913;-65
2023/05/31 12:18:22;;;;;;;;;;;;;;;33.35;25.03;100197.06;5060620;28;20019;-65
2023/05/31 12:20:47;;;;;;;;;;;;;;;33.47;24.94;100185.56;5065333;28;19912;-64
2023/05/31 12:23:14;;;;;;;;;;;;;;;33.72;25.07;100182.28;5066951;28;19979;-64
2023/05/31 12:25:46;;;;;;;;;;;;;;;33.75;25.41;100186.53;5058943;28;19921;-64
2023/05/31 12:28:11;;;;;;;;;;;;;;;33.60;25.76;100180.19;5061189;28;20383;-64
2023/05/31 12:30:43;;;;;;;;;;;;;;;33.64;25.03;100176.03;5057694;28;19959;-63
2023/05/31 12:33:11;;;;;;;;;;;;;;;34.41;28.35;100158.63;5071911;28;20338;-65